sensor_id;sensor_type;location;lat;lon;timestamp;P1;durP1;ratioP1;P2;durP2;ratioP2
19623;SDS011;9959;49.798;9.928;2023-03-30T00:01:12;9.57;;;3.95;;
19623;SDS011;9959;49.798;9.928;2023-03-30T00:03:43;8.70;;;4.10;;
19623;SDS011;9959;49.798;9.928;2023-03-30T00:06:12;9.63;;;3.83;;
19623;SDS011;9959;49.798;9.928;2023-03-30T00:08:47;8.65;;;4.13;;
19623;SDS011;9959;49.798;9.928;2023-03-30T00:11:14;9.75;;;3.90;;
19623;SDS011;9959;49.798;9.928;2023-03-30T00:13:42;8.65;;;4.32;;
19623;SDS011;9959;49.798;9.928;2023-03-30T00:16:11;6.68;;;4.18;;
19623;SDS011;9959;49.798;9.928;2023-03-30T00:18:39;9.40;;;4.13;;
19623;SDS011;9959;49.798;9.928;2023-03-30T00:21:07;11.45;;;4.78;;
19623;SDS011;9959;49.798;9.928;2023-03-30T00:23:37;8.10;;;3.95;;
19623;SDS011;9959;49.798;9.928;2023-03-30T00:26:05;8.00;;;4.00;;
19623;SDS011;9959;49.798;9.928;2023-03-30T00:28:33;7.82;;;4.53;;
19623;SDS011;9959;49.798;9.928;2023-03-30T00:31:00;6.82;;;4.18;;
19623;SDS011;9959;49.798;9.928;2023-03-30T00:33:28;12.52;;;4.70;;
19623;SDS011;9959;49.798;9.928;2023-03-30T00:36:10;6.25;;;4.30;;
19623;SDS011;9959;49.798;9.928;2023-03-30T00:38:38;11.85;;;4.03;;
19623;SDS011;9959;49.798;9.928;2023-03-30T00:41:06;13.30;;;4.10;;
19623;SDS011;9959;49.798;9.928;2023-03-30T00:43:33;8.65;;;4.40;;
19623;SDS011;9959;49.798;9.928;2023-03-30T00:46:00;4.55;;;3.67;;
19623;SDS011;9959;49.798;9.928;2023-03-30T00:48:31;8.02;;;4.18;;
19623;SDS011;9959;49.798;9.928;2023-03-30T00:51:03;8.73;;;4.10;;
19623;SDS011;9959;49.798;9.928;2023-03-30T00:53:39;9.88;;;3.80;;
19623;SDS011;9959;49.798;9.928;2023-03-30T00:56:09;8.07;;;4.43;;
19623;SDS011;9959;49.798;9.928;2023-03-30T00:58:38;11.48;;;3.80;;
19623;SDS011;9959;49.798;9.928;2023-03-30T01:01:07;10.82;;;3.83;;
19623;SDS011;9959;49.798;9.928;2023-03-30T01:03:39;12.05;;;3.97;;
19623;SDS011;9959;49.798;9.928;2023-03-30T01:06:09;6.85;;;3.58;;
19623;SDS011;9959;49.798;9.928;2023-03-30T01:08:37;8.73;;;3.72;;
19623;SDS011;9959;49.798;9.928;2023-03-30T01:11:05;7.95;;;3.60;;
19623;SDS011;9959;49.798;9.928;2023-03-30T01:13:33;13.13;;;4.18;;
19623;SDS011;9959;49.798;9.928;2023-03-30T01:18:52;5.68;;;3.38;;
19623;SDS011;9959;49.798;9.928;2023-03-30T01:24:38;6.70;;;3.53;;
19623;SDS011;9959;49.798;9.928;2023-03-30T01:39:55;8.30;;;3.72;;
19623;SDS011;9959;49.798;9.928;2023-03-30T01:42:36;10.07;;;3.05;;
19623;SDS011;9959;49.798;9.928;2023-03-30T01:47:51;9.32;;;3.47;;
19623;SDS011;9959;49.798;9.928;2023-03-30T01:50:24;6.20;;;3.53;;
19623;SDS011;9959;49.798;9.928;2023-03-30T01:55:40;10.07;;;3.42;;
19623;SDS011;9959;49.798;9.928;2023-03-30T01:58:33;8.13;;;3.30;;
19623;SDS011;9959;49.798;9.928;2023-03-30T02:01:05;7.60;;;3.97;;
19623;SDS011;9959;49.798;9.928;2023-03-30T02:03:35;10.43;;;3.50;;
19623;SDS011;9959;49.798;9.928;2023-03-30T02:08:47;12.38;;;3.55;;
19623;SDS011;9959;49.798;9.928;2023-03-30T02:11:16;8.88;;;3.30;;
19623;SDS011;9959;49.798;9.928;2023-03-30T02:13:43;10.23;;;3.63;;
19623;SDS011;9959;49.798;9.928;2023-03-30T02:16:17;6.32;;;3.53;;
19623;SDS011;9959;49.798;9.928;2023-03-30T02:18:46;9.02;;;3.58;;
19623;SDS011;9959;49.798;9.928;2023-03-30T02:21:14;9.25;;;3.63;;
19623;SDS011;9959;49.798;9.928;2023-03-30T02:23:42;12.60;;;3.70;;
19623;SDS011;9959;49.798;9.928;2023-03-30T02:26:11;12.52;;;3.20;;
19623;SDS011;9959;49.798;9.928;2023-03-30T02:28:39;8.60;;;3.30;;
19623;SDS011;9959;49.798;9.928;2023-03-30T02:31:12;12.13;;;3.42;;
19623;SDS011;9959;49.798;9.928;2023-03-30T02:39:05;9.98;;;3.60;;
19623;SDS011;9959;49.798;9.928;2023-03-30T02:42:04;10.30;;;4.07;;
19623;SDS011;9959;49.798;9.928;2023-03-30T02:44:55;8.88;;;3.75;;
19623;SDS011;9959;49.798;9.928;2023-03-30T02:47:47;11.50;;;3.63;;
19623;SDS011;9959;49.798;9.928;2023-03-30T02:50:44;11.65;;;3.00;;
19623;SDS011;9959;49.798;9.928;2023-03-30T02:53:22;6.88;;;3.00;;
19623;SDS011;9959;49.798;9.928;2023-03-30T02:56:15;6.60;;;3.45;;
19623;SDS011;9959;49.798;9.928;2023-03-30T02:58:54;9.27;;;3.50;;
19623;SDS011;9959;49.798;9.928;2023-03-30T03:01:36;8.35;;;3.47;;
19623;SDS011;9959;49.798;9.928;2023-03-30T03:04:08;13.38;;;3.63;;
19623;SDS011;9959;49.798;9.928;2023-03-30T03:06:37;16.05;;;3.25;;
19623;SDS011;9959;49.798;9.928;2023-03-30T03:09:05;12.07;;;3.30;;
19623;SDS011;9959;49.798;9.928;2023-03-30T03:11:32;17.75;;;3.38;;
19623;SDS011;9959;49.798;9.928;2023-03-30T03:13:59;13.52;;;2.90;;
19623;SDS011;9959;49.798;9.928;2023-03-30T03:16:27;15.82;;;3.60;;
19623;SDS011;9959;49.798;9.928;2023-03-30T03:18:54;12.15;;;3.58;;
19623;SDS011;9959;49.798;9.928;2023-03-30T03:21:22;10.82;;;3.15;;
19623;SDS011;9959;49.798;9.928;2023-03-30T03:23:49;13.98;;;4.03;;
19623;SDS011;9959;49.798;9.928;2023-03-30T03:26:16;13.52;;;3.15;;
19623;SDS011;9959;49.798;9.928;2023-03-30T03:28:44;11.73;;;3.40;;
19623;SDS011;9959;49.798;9.928;2023-03-30T03:31:12;13.10;;;3.03;;
19623;SDS011;9959;49.798;9.928;2023-03-30T03:33:39;6.55;;;3.20;;
19623;SDS011;9959;49.798;9.928;2023-03-30T03:36:06;11.50;;;3.28;;
19623;SDS011;9959;49.798;9.928;2023-03-30T03:38:34;15.98;;;4.53;;
19623;SDS011;9959;49.798;9.928;2023-03-30T03:41:01;11.15;;;4.05;;
19623;SDS011;9959;49.798;9.928;2023-03-30T03:43:29;10.32;;;4.05;;
19623;SDS011;9959;49.798;9.928;2023-03-30T03:45:56;11.88;;;4.32;;
19623;SDS011;9959;49.798;9.928;2023-03-30T03:48:24;13.43;;;3.63;;
19623;SDS011;9959;49.798;9.928;2023-03-30T03:50:52;9.52;;;3.15;;
19623;SDS011;9959;49.798;9.928;2023-03-30T03:53:22;9.99;;;3.33;;
19623;SDS011;9959;49.798;9.928;2023-03-30T03:55:51;12.68;;;3.42;;
19623;SDS011;9959;49.798;9.928;2023-03-30T03:58:18;11.15;;;3.25;;
19623;SDS011;9959;49.798;9.928;2023-03-30T04:00:46;11.65;;;3.83;;
19623;SDS011;9959;49.798;9.928;2023-03-30T04:03:14;10.52;;;3.47;;
19623;SDS011;9959;49.798;9.928;2023-03-30T04:05:42;17.48;;;4.03;;
19623;SDS011;9959;49.798;9.928;2023-03-30T04:08:09;14.70;;;3.50;;
19623;SDS011;9959;49.798;9.928;2023-03-30T04:10:43;12.45;;;3.80;;
19623;SDS011;9959;49.798;9.928;2023-03-30T04:13:10;11.35;;;3.45;;
19623;SDS011;9959;49.798;9.928;2023-03-30T04:15:37;17.98;;;3.63;;
19623;SDS011;9959;49.798;9.928;2023-03-30T04:18:04;12.52;;;3.03;;
19623;SDS011;9959;49.798;9.928;2023-03-30T04:20:32;11.80;;;2.97;;
19623;SDS011;9959;49.798;9.928;2023-03-30T04:22:59;11.15;;;3.38;;
19623;SDS011;9959;49.798;9.928;2023-03-30T04:25:29;10.07;;;3.20;;
19623;SDS011;9959;49.798;9.928;2023-03-30T04:27:56;10.85;;;3.28;;
19623;SDS011;9959;49.798;9.928;2023-03-30T04:30:23;13.23;;;3.53;;
19623;SDS011;9959;49.798;9.928;2023-03-30T04:32:50;12.73;;;4.25;;
19623;SDS011;9959;49.798;9.928;2023-03-30T04:35:30;21.38;;;4.28;;
19623;SDS011;9959;49.798;9.928;2023-03-30T04:37:57;13.20;;;4.75;;
19623;SDS011;9959;49.798;9.928;2023-03-30T04:40:25;20.48;;;3.80;;
19623;SDS011;9959;49.798;9.928;2023-03-30T04:42:53;16.70;;;3.92;;
19623;SDS011;9959;49.798;9.928;2023-03-30T04:45:20;12.52;;;3.35;;
19623;SDS011;9959;49.798;9.928;2023-03-30T04:47:47;17.67;;;3.90;;
19623;SDS011;9959;49.798;9.928;2023-03-30T04:50:14;21.73;;;4.38;;
19623;SDS011;9959;49.798;9.928;2023-03-30T04:52:41;12.80;;;4.88;;
19623;SDS011;9959;49.798;9.928;2023-03-30T04:55:08;21.13;;;6.85;;
19623;SDS011;9959;49.798;9.928;2023-03-30T04:57:37;27.55;;;9.65;;
19623;SDS011;9959;49.798;9.928;2023-03-30T05:00:05;24.10;;;8.02;;
19623;SDS011;9959;49.798;9.928;2023-03-30T05:02:35;24.15;;;6.90;;
19623;SDS011;9959;49.798;9.928;2023-03-30T05:05:02;18.23;;;5.28;;
19623;SDS011;9959;49.798;9.928;2023-03-30T05:07:29;16.63;;;4.65;;
19623;SDS011;9959;49.798;9.928;2023-03-30T05:09:56;18.83;;;4.55;;
19623;SDS011;9959;49.798;9.928;2023-03-30T05:12:22;13.65;;;4.63;;
19623;SDS011;9959;49.798;9.928;2023-03-30T05:14:49;16.25;;;4.60;;
19623;SDS011;9959;49.798;9.928;2023-03-30T05:17:16;13.38;;;3.58;;
19623;SDS011;9959;49.798;9.928;2023-03-30T05:19:44;19.38;;;4.93;;
19623;SDS011;9959;49.798;9.928;2023-03-30T05:22:13;18.88;;;6.35;;
19623;SDS011;9959;49.798;9.928;2023-03-30T05:24:41;21.13;;;7.10;;
19623;SDS011;9959;49.798;9.928;2023-03-30T05:27:11;20.13;;;5.72;;
19623;SDS011;9959;49.798;9.928;2023-03-30T05:29:44;12.88;;;4.70;;
19623;SDS011;9959;49.798;9.928;2023-03-30T05:32:11;19.92;;;5.45;;
19623;SDS011;9959;49.798;9.928;2023-03-30T05:34:40;19.90;;;5.78;;
19623;SDS011;9959;49.798;9.928;2023-03-30T05:37:07;31.88;;;7.53;;
19623;SDS011;9959;49.798;9.928;2023-03-30T05:39:34;20.05;;;5.78;;
19623;SDS011;9959;49.798;9.928;2023-03-30T05:42:02;17.38;;;5.95;;
19623;SDS011;9959;49.798;9.928;2023-03-30T05:44:29;26.13;;;5.30;;
19623;SDS011;9959;49.798;9.928;2023-03-30T05:46:56;16.08;;;6.00;;
19623;SDS011;9959;49.798;9.928;2023-03-30T05:49:23;19.05;;;5.78;;
19623;SDS011;9959;49.798;9.928;2023-03-30T05:51:50;19.40;;;5.35;;
19623;SDS011;9959;49.798;9.928;2023-03-30T05:56:47;21.77;;;6.40;;
19623;SDS011;9959;49.798;9.928;2023-03-30T05:59:17;26.67;;;6.32;;
19623;SDS011;9959;49.798;9.928;2023-03-30T06:01:44;16.08;;;4.97;;
19623;SDS011;9959;49.798;9.928;2023-03-30T06:04:12;23.08;;;5.60;;
19623;SDS011;9959;49.798;9.928;2023-03-30T06:06:42;19.35;;;5.38;;
19623;SDS011;9959;49.798;9.928;2023-03-30T06:09:09;12.73;;;4.55;;
19623;SDS011;9959;49.798;9.928;2023-03-30T06:11:36;17.13;;;4.70;;
19623;SDS011;9959;49.798;9.928;2023-03-30T06:14:03;17.27;;;4.45;;
19623;SDS011;9959;49.798;9.928;2023-03-30T06:16:30;21.45;;;6.13;;
19623;SDS011;9959;49.798;9.928;2023-03-30T06:18:57;21.48;;;5.40;;
19623;SDS011;9959;49.798;9.928;2023-03-30T06:21:24;18.48;;;5.05;;
19623;SDS011;9959;49.798;9.928;2023-03-30T06:23:51;19.98;;;5.82;;
19623;SDS011;9959;49.798;9.928;2023-03-30T06:26:18;23.63;;;6.25;;
19623;SDS011;9959;49.798;9.928;2023-03-30T06:28:45;15.70;;;5.35;;
19623;SDS011;9959;49.798;9.928;2023-03-30T06:31:12;22.02;;;4.53;;
19623;SDS011;9959;49.798;9.928;2023-03-30T06:33:39;26.23;;;5.13;;
19623;SDS011;9959;49.798;9.928;2023-03-30T06:36:10;21.73;;;5.15;;
19623;SDS011;9959;49.798;9.928;2023-03-30T06:38:39;20.80;;;5.07;;
19623;SDS011;9959;49.798;9.928;2023-03-30T06:41:06;23.08;;;7.15;;
19623;SDS011;9959;49.798;9.928;2023-03-30T06:43:35;17.40;;;5.25;;
19623;SDS011;9959;49.798;9.928;2023-03-30T06:46:03;20.25;;;5.30;;
19623;SDS011;9959;49.798;9.928;2023-03-30T06:48:31;21.63;;;5.55;;
19623;SDS011;9959;49.798;9.928;2023-03-30T06:50:58;22.35;;;5.93;;
19623;SDS011;9959;49.798;9.928;2023-03-30T06:53:25;18.27;;;4.38;;
19623;SDS011;9959;49.798;9.928;2023-03-30T06:55:54;16.02;;;4.47;;
19623;SDS011;9959;49.798;9.928;2023-03-30T06:58:23;25.33;;;5.22;;
19623;SDS011;9959;49.798;9.928;2023-03-30T07:00:51;17.88;;;4.97;;
19623;SDS011;9959;49.798;9.928;2023-03-30T07:03:18;14.85;;;4.63;;
19623;SDS011;9959;49.798;9.928;2023-03-30T07:05:47;18.88;;;5.30;;
19623;SDS011;9959;49.798;9.928;2023-03-30T07:08:15;24.58;;;5.40;;
19623;SDS011;9959;49.798;9.928;2023-03-30T07:10:44;24.30;;;5.93;;
19623;SDS011;9959;49.798;9.928;2023-03-30T07:13:12;18.63;;;4.85;;
19623;SDS011;9959;49.798;9.928;2023-03-30T07:15:41;21.50;;;5.18;;
19623;SDS011;9959;49.798;9.928;2023-03-30T07:18:09;18.77;;;5.65;;
19623;SDS011;9959;49.798;9.928;2023-03-30T07:20:36;16.38;;;5.10;;
19623;SDS011;9959;49.798;9.928;2023-03-30T07:23:03;27.27;;;5.45;;
19623;SDS011;9959;49.798;9.928;2023-03-30T07:25:30;23.70;;;6.35;;
19623;SDS011;9959;49.798;9.928;2023-03-30T07:27:58;21.33;;;5.82;;
19623;SDS011;9959;49.798;9.928;2023-03-30T07:30:24;21.77;;;5.38;;
19623;SDS011;9959;49.798;9.928;2023-03-30T07:32:51;31.88;;;6.40;;
19623;SDS011;9959;49.798;9.928;2023-03-30T07:35:22;18.85;;;5.50;;
19623;SDS011;9959;49.798;9.928;2023-03-30T07:37:49;18.88;;;5.63;;
19623;SDS011;9959;49.798;9.928;2023-03-30T07:40:17;20.17;;;5.45;;
19623;SDS011;9959;49.798;9.928;2023-03-30T07:42:44;18.42;;;5.75;;
19623;SDS011;9959;49.798;9.928;2023-03-30T07:45:13;23.75;;;5.95;;
19623;SDS011;9959;49.798;9.928;2023-03-30T07:47:41;24.77;;;5.80;;
19623;SDS011;9959;49.798;9.928;2023-03-30T07:50:08;19.15;;;6.03;;
19623;SDS011;9959;49.798;9.928;2023-03-30T07:52:35;22.33;;;4.57;;
19623;SDS011;9959;49.798;9.928;2023-03-30T07:55:03;25.27;;;4.80;;
19623;SDS011;9959;49.798;9.928;2023-03-30T07:57:30;15.75;;;5.80;;
19623;SDS011;9959;49.798;9.928;2023-03-30T07:59:57;28.55;;;6.68;;
19623;SDS011;9959;49.798;9.928;2023-03-30T08:02:24;19.55;;;5.45;;
19623;SDS011;9959;49.798;9.928;2023-03-30T08:04:51;17.70;;;4.80;;
19623;SDS011;9959;49.798;9.928;2023-03-30T08:07:18;16.63;;;4.70;;
19623;SDS011;9959;49.798;9.928;2023-03-30T08:09:45;12.73;;;4.15;;
19623;SDS011;9959;49.798;9.928;2023-03-30T08:12:11;19.40;;;5.22;;
19623;SDS011;9959;49.798;9.928;2023-03-30T08:14:38;21.85;;;5.82;;
19623;SDS011;9959;49.798;9.928;2023-03-30T08:17:05;13.80;;;4.53;;
19623;SDS011;9959;49.798;9.928;2023-03-30T08:19:33;19.17;;;4.90;;
19623;SDS011;9959;49.798;9.928;2023-03-30T08:21:59;15.38;;;5.10;;
19623;SDS011;9959;49.798;9.928;2023-03-30T08:24:27;19.77;;;4.95;;
19623;SDS011;9959;49.798;9.928;2023-03-30T08:26:55;19.40;;;5.43;;
19623;SDS011;9959;49.798;9.928;2023-03-30T08:29:21;17.25;;;5.00;;
19623;SDS011;9959;49.798;9.928;2023-03-30T08:31:49;17.50;;;5.60;;
19623;SDS011;9959;49.798;9.928;2023-03-30T08:34:16;20.98;;;5.22;;
19623;SDS011;9959;49.798;9.928;2023-03-30T08:36:43;17.90;;;5.20;;
19623;SDS011;9959;49.798;9.928;2023-03-30T08:39:10;21.30;;;6.15;;
19623;SDS011;9959;49.798;9.928;2023-03-30T08:44:16;15.57;;;5.35;;
19623;SDS011;9959;49.798;9.928;2023-03-30T08:46:46;21.35;;;5.43;;
19623;SDS011;9959;49.798;9.928;2023-03-30T08:49:16;22.42;;;6.60;;
19623;SDS011;9959;49.798;9.928;2023-03-30T08:51:44;19.38;;;5.50;;
19623;SDS011;9959;49.798;9.928;2023-03-30T08:54:15;26.20;;;5.70;;
19623;SDS011;9959;49.798;9.928;2023-03-30T09:02:00;20.33;;;5.60;;
19623;SDS011;9959;49.798;9.928;2023-03-30T09:09:46;15.88;;;4.85;;
19623;SDS011;9959;49.798;9.928;2023-03-30T09:12:17;19.05;;;5.90;;
19623;SDS011;9959;49.798;9.928;2023-03-30T09:14:49;26.02;;;6.75;;
19623;SDS011;9959;49.798;9.928;2023-03-30T09:17:24;16.40;;;5.80;;
19623;SDS011;9959;49.798;9.928;2023-03-30T09:20:02;24.50;;;5.63;;
19623;SDS011;9959;49.798;9.928;2023-03-30T09:22:40;14.95;;;5.07;;
19623;SDS011;9959;49.798;9.928;2023-03-30T09:25:14;16.77;;;5.60;;
19623;SDS011;9959;49.798;9.928;2023-03-30T09:30:48;16.00;;;4.88;;
19623;SDS011;9959;49.798;9.928;2023-03-30T09:38:47;10.88;;;4.90;;
19623;SDS011;9959;49.798;9.928;2023-03-30T09:43:47;12.93;;;4.63;;
19623;SDS011;9959;49.798;9.928;2023-03-30T09:46:16;13.20;;;4.57;;
19623;SDS011;9959;49.798;9.928;2023-03-30T09:48:46;12.07;;;3.83;;
19623;SDS011;9959;49.798;9.928;2023-03-30T09:51:15;8.75;;;3.60;;
19623;SDS011;9959;49.798;9.928;2023-03-30T09:53:48;11.07;;;4.05;;
19623;SDS011;9959;49.798;9.928;2023-03-30T09:58:47;9.75;;;3.78;;
19623;SDS011;9959;49.798;9.928;2023-03-30T10:01:16;13.27;;;4.53;;
19623;SDS011;9959;49.798;9.928;2023-03-30T10:04:00;8.10;;;4.00;;
19623;SDS011;9959;49.798;9.928;2023-03-30T10:06:43;7.80;;;3.50;;
19623;SDS011;9959;49.798;9.928;2023-03-30T10:09:12;9.35;;;3.30;;
19623;SDS011;9959;49.798;9.928;2023-03-30T10:11:58;10.82;;;3.53;;
19623;SDS011;9959;49.798;9.928;2023-03-30T10:14:32;10.05;;;3.70;;
19623;SDS011;9959;49.798;9.928;2023-03-30T10:17:01;8.32;;;4.00;;
19623;SDS011;9959;49.798;9.928;2023-03-30T10:19:32;11.00;;;3.90;;
19623;SDS011;9959;49.798;9.928;2023-03-30T10:22:04;9.63;;;4.07;;
19623;SDS011;9959;49.798;9.928;2023-03-30T10:24:49;9.43;;;3.50;;
19623;SDS011;9959;49.798;9.928;2023-03-30T10:27:18;8.77;;;3.88;;
19623;SDS011;9959;49.798;9.928;2023-03-30T10:29:45;8.52;;;4.05;;
19623;SDS011;9959;49.798;9.928;2023-03-30T10:34:49;12.00;;;3.80;;
19623;SDS011;9959;49.798;9.928;2023-03-30T10:39:57;10.05;;;3.47;;
19623;SDS011;9959;49.798;9.928;2023-03-30T10:42:27;9.25;;;3.75;;
19623;SDS011;9959;49.798;9.928;2023-03-30T10:44:58;8.90;;;3.60;;
19623;SDS011;9959;49.798;9.928;2023-03-30T10:47:31;10.10;;;4.00;;
19623;SDS011;9959;49.798;9.928;2023-03-30T10:53:04;8.38;;;3.67;;
19623;SDS011;9959;49.798;9.928;2023-03-30T10:56:02;7.13;;;3.50;;
19623;SDS011;9959;49.798;9.928;2023-03-30T10:59:00;7.03;;;2.97;;
19623;SDS011;9959;49.798;9.928;2023-03-30T11:04:44;9.10;;;3.50;;
19623;SDS011;9959;49.798;9.928;2023-03-30T11:09:47;6.82;;;3.10;;
19623;SDS011;9959;49.798;9.928;2023-03-30T11:12:20;7.75;;;3.67;;
19623;SDS011;9959;49.798;9.928;2023-03-30T11:20:58;6.68;;;3.63;;
19623;SDS011;9959;49.798;9.928;2023-03-30T11:23:41;11.88;;;3.60;;
19623;SDS011;9959;49.798;9.928;2023-03-30T11:26:10;11.02;;;3.42;;
19623;SDS011;9959;49.798;9.928;2023-03-30T11:33:50;12.70;;;3.20;;
19623;SDS011;9959;49.798;9.928;2023-03-30T11:36:33;7.78;;;3.22;;
19623;SDS011;9959;49.798;9.928;2023-03-30T11:39:07;8.25;;;2.92;;
19623;SDS011;9959;49.798;9.928;2023-03-30T11:41:46;8.07;;;3.33;;
19623;SDS011;9959;49.798;9.928;2023-03-30T11:44:17;6.50;;;3.08;;
19623;SDS011;9959;49.798;9.928;2023-03-30T11:49:32;8.82;;;3.38;;
19623;SDS011;9959;49.798;9.928;2023-03-30T11:54:50;6.13;;;3.17;;
19623;SDS011;9959;49.798;9.928;2023-03-30T11:57:32;5.13;;;2.90;;
19623;SDS011;9959;49.798;9.928;2023-03-30T12:00:16;8.35;;;3.33;;
19623;SDS011;9959;49.798;9.928;2023-03-30T12:02:54;6.40;;;3.00;;
19623;SDS011;9959;49.798;9.928;2023-03-30T12:05:36;7.80;;;3.15;;
19623;SDS011;9959;49.798;9.928;2023-03-30T12:10:47;6.53;;;3.17;;
19623;SDS011;9959;49.798;9.928;2023-03-30T12:13:19;5.15;;;2.30;;
19623;SDS011;9959;49.798;9.928;2023-03-30T12:21:51;9.02;;;2.55;;
19623;SDS011;9959;49.798;9.928;2023-03-30T12:24:48;5.90;;;2.90;;
19623;SDS011;9959;49.798;9.928;2023-03-30T12:27:19;6.88;;;2.65;;
19623;SDS011;9959;49.798;9.928;2023-03-30T12:29:51;5.88;;;2.80;;
19623;SDS011;9959;49.798;9.928;2023-03-30T12:32:28;5.38;;;2.80;;
19623;SDS011;9959;49.798;9.928;2023-03-30T12:34:56;9.57;;;3.63;;
19623;SDS011;9959;49.798;9.928;2023-03-30T12:37:34;6.38;;;2.63;;
19623;SDS011;9959;49.798;9.928;2023-03-30T12:42:50;7.47;;;2.80;;
19623;SDS011;9959;49.798;9.928;2023-03-30T12:45:47;6.30;;;2.60;;
19623;SDS011;9959;49.798;9.928;2023-03-30T12:48:31;7.63;;;2.95;;
19623;SDS011;9959;49.798;9.928;2023-03-30T12:51:15;7.72;;;2.60;;
19623;SDS011;9959;49.798;9.928;2023-03-30T13:00:00;3.88;;;2.03;;
19623;SDS011;9959;49.798;9.928;2023-03-30T13:07:47;4.50;;;1.98;;
19623;SDS011;9959;49.798;9.928;2023-03-30T13:12:46;8.02;;;2.20;;
19623;SDS011;9959;49.798;9.928;2023-03-30T13:18:00;3.45;;;2.00;;
19623;SDS011;9959;49.798;9.928;2023-03-30T13:20:31;4.25;;;1.98;;
19623;SDS011;9959;49.798;9.928;2023-03-30T13:25:43;5.25;;;2.60;;
19623;SDS011;9959;49.798;9.928;2023-03-30T13:34:22;5.32;;;1.83;;
19623;SDS011;9959;49.798;9.928;2023-03-30T13:37:02;5.00;;;1.77;;
19623;SDS011;9959;49.798;9.928;2023-03-30T13:45:06;6.00;;;1.88;;
19623;SDS011;9959;49.798;9.928;2023-03-30T13:50:49;4.53;;;1.10;;
19623;SDS011;9959;49.798;9.928;2023-03-30T13:53:20;2.35;;;1.20;;
19623;SDS011;9959;49.798;9.928;2023-03-30T13:55:55;4.70;;;1.20;;
19623;SDS011;9959;49.798;9.928;2023-03-30T13:58:29;2.25;;;1.20;;
19623;SDS011;9959;49.798;9.928;2023-03-30T14:01:06;2.42;;;1.33;;
19623;SDS011;9959;49.798;9.928;2023-03-30T14:03:54;2.92;;;1.25;;
19623;SDS011;9959;49.798;9.928;2023-03-30T14:06:26;1.65;;;1.00;;
19623;SDS011;9959;49.798;9.928;2023-03-30T14:09:08;1.27;;;1.00;;
19623;SDS011;9959;49.798;9.928;2023-03-30T14:11:42;3.10;;;1.20;;
19623;SDS011;9959;49.798;9.928;2023-03-30T14:14:15;2.70;;;1.10;;
19623;SDS011;9959;49.798;9.928;2023-03-30T14:16:48;2.30;;;1.10;;
19623;SDS011;9959;49.798;9.928;2023-03-30T14:21:47;4.13;;;1.38;;
19623;SDS011;9959;49.798;9.928;2023-03-30T14:24:25;3.70;;;1.40;;
19623;SDS011;9959;49.798;9.928;2023-03-30T14:26:47;2.88;;;1.48;;
19623;SDS011;9959;49.798;9.928;2023-03-30T14:29:17;1.58;;;1.30;;
19623;SDS011;9959;49.798;9.928;2023-03-30T14:31:44;2.75;;;1.33;;
19623;SDS011;9959;49.798;9.928;2023-03-30T14:34:32;6.00;;;1.40;;
19623;SDS011;9959;49.798;9.928;2023-03-30T14:37:03;4.72;;;1.67;;
19623;SDS011;9959;49.798;9.928;2023-03-30T14:39:36;3.92;;;1.50;;
19623;SDS011;9959;49.798;9.928;2023-03-30T14:42:13;6.15;;;1.52;;
19623;SDS011;9959;49.798;9.928;2023-03-30T14:44:47;4.15;;;1.30;;
19623;SDS011;9959;49.798;9.928;2023-03-30T14:47:17;3.90;;;1.88;;
19623;SDS011;9959;49.798;9.928;2023-03-30T14:49:47;5.03;;;1.90;;
19623;SDS011;9959;49.798;9.928;2023-03-30T14:52:20;7.93;;;1.58;;
19623;SDS011;9959;49.798;9.928;2023-03-30T14:54:47;5.20;;;1.20;;
19623;SDS011;9959;49.798;9.928;2023-03-30T14:57:34;3.20;;;1.48;;
19623;SDS011;9959;49.798;9.928;2023-03-30T15:00:07;3.55;;;1.48;;
19623;SDS011;9959;49.798;9.928;2023-03-30T15:02:45;3.58;;;1.50;;
19623;SDS011;9959;49.798;9.928;2023-03-30T15:05:15;2.55;;;1.50;;
19623;SDS011;9959;49.798;9.928;2023-03-30T15:07:50;3.35;;;1.40;;
19623;SDS011;9959;49.798;9.928;2023-03-30T15:12:47;4.43;;;1.52;;
19623;SDS011;9959;49.798;9.928;2023-03-30T15:15:15;6.40;;;1.50;;
19623;SDS011;9959;49.798;9.928;2023-03-30T15:17:46;4.05;;;1.90;;
19623;SDS011;9959;49.798;9.928;2023-03-30T15:20:15;4.70;;;1.55;;
19623;SDS011;9959;49.798;9.928;2023-03-30T15:22:43;4.28;;;1.63;;
19623;SDS011;9959;49.798;9.928;2023-03-30T15:25:16;2.25;;;1.35;;
19623;SDS011;9959;49.798;9.928;2023-03-30T15:27:46;5.35;;;1.85;;
19623;SDS011;9959;49.798;9.928;2023-03-30T15:33:02;5.20;;;1.60;;
19623;SDS011;9959;49.798;9.928;2023-03-30T15:35:31;5.43;;;1.52;;
19623;SDS011;9959;49.798;9.928;2023-03-30T15:38:03;4.88;;;2.30;;
19623;SDS011;9959;49.798;9.928;2023-03-30T15:40:41;5.18;;;1.52;;
19623;SDS011;9959;49.798;9.928;2023-03-30T15:43:16;5.03;;;2.33;;
19623;SDS011;9959;49.798;9.928;2023-03-30T15:45:54;8.50;;;2.15;;
19623;SDS011;9959;49.798;9.928;2023-03-30T15:48:45;4.78;;;1.70;;
19623;SDS011;9959;49.798;9.928;2023-03-30T15:51:20;5.15;;;1.85;;
19623;SDS011;9959;49.798;9.928;2023-03-30T15:53:48;4.68;;;1.90;;
19623;SDS011;9959;49.798;9.928;2023-03-30T15:58:48;9.60;;;3.45;;
19623;SDS011;9959;49.798;9.928;2023-03-30T16:01:16;6.25;;;2.72;;
19623;SDS011;9959;49.798;9.928;2023-03-30T16:03:54;6.50;;;2.08;;
19623;SDS011;9959;49.798;9.928;2023-03-30T16:06:25;8.07;;;2.10;;
19623;SDS011;9959;49.798;9.928;2023-03-30T16:08:52;9.43;;;2.58;;
19623;SDS011;9959;49.798;9.928;2023-03-30T16:11:19;5.80;;;1.67;;
19623;SDS011;9959;49.798;9.928;2023-03-30T16:13:47;9.10;;;1.77;;
19623;SDS011;9959;49.798;9.928;2023-03-30T16:18:48;8.07;;;2.55;;
19623;SDS011;9959;49.798;9.928;2023-03-30T16:21:15;7.00;;;1.42;;
19623;SDS011;9959;49.798;9.928;2023-03-30T16:23:43;6.35;;;2.25;;
19623;SDS011;9959;49.798;9.928;2023-03-30T16:26:11;3.25;;;1.55;;
19623;SDS011;9959;49.798;9.928;2023-03-30T16:28:38;5.00;;;1.70;;
19623;SDS011;9959;49.798;9.928;2023-03-30T16:31:13;7.75;;;2.70;;
19623;SDS011;9959;49.798;9.928;2023-03-30T16:33:44;8.55;;;3.35;;
19623;SDS011;9959;49.798;9.928;2023-03-30T16:36:18;5.82;;;2.30;;
19623;SDS011;9959;49.798;9.928;2023-03-30T16:39:13;5.72;;;1.92;;
19623;SDS011;9959;49.798;9.928;2023-03-30T16:41:46;3.60;;;1.60;;
19623;SDS011;9959;49.798;9.928;2023-03-30T16:44:15;5.25;;;1.75;;
19623;SDS011;9959;49.798;9.928;2023-03-30T16:46:44;3.10;;;1.48;;
19623;SDS011;9959;49.798;9.928;2023-03-30T16:49:12;4.70;;;2.25;;
19623;SDS011;9959;49.798;9.928;2023-03-30T16:51:41;7.10;;;2.03;;
19623;SDS011;9959;49.798;9.928;2023-03-30T16:54:08;7.68;;;2.13;;
19623;SDS011;9959;49.798;9.928;2023-03-30T16:56:53;7.57;;;2.33;;
19623;SDS011;9959;49.798;9.928;2023-03-30T16:59:24;7.28;;;1.83;;
19623;SDS011;9959;49.798;9.928;2023-03-30T17:01:52;5.43;;;2.30;;
19623;SDS011;9959;49.798;9.928;2023-03-30T17:04:19;4.82;;;2.13;;
19623;SDS011;9959;49.798;9.928;2023-03-30T17:06:46;9.30;;;3.45;;
19623;SDS011;9959;49.798;9.928;2023-03-30T17:09:17;6.53;;;2.40;;
19623;SDS011;9959;49.798;9.928;2023-03-30T17:11:45;6.38;;;2.10;;
19623;SDS011;9959;49.798;9.928;2023-03-30T17:14:14;7.88;;;2.42;;
19623;SDS011;9959;49.798;9.928;2023-03-30T17:16:43;11.70;;;1.95;;
19623;SDS011;9959;49.798;9.928;2023-03-30T17:19:11;5.38;;;1.85;;
19623;SDS011;9959;49.798;9.928;2023-03-30T17:21:39;8.48;;;2.92;;
19623;SDS011;9959;49.798;9.928;2023-03-30T17:24:09;9.88;;;3.38;;
19623;SDS011;9959;49.798;9.928;2023-03-30T17:26:38;7.13;;;2.83;;
19623;SDS011;9959;49.798;9.928;2023-03-30T17:29:06;10.63;;;3.53;;
19623;SDS011;9959;49.798;9.928;2023-03-30T17:31:32;8.95;;;2.92;;
19623;SDS011;9959;49.798;9.928;2023-03-30T17:34:00;10.50;;;4.55;;
19623;SDS011;9959;49.798;9.928;2023-03-30T17:36:26;14.13;;;4.25;;
19623;SDS011;9959;49.798;9.928;2023-03-30T17:38:54;12.30;;;3.63;;
19623;SDS011;9959;49.798;9.928;2023-03-30T17:41:25;6.53;;;4.22;;
19623;SDS011;9959;49.798;9.928;2023-03-30T17:43:52;6.85;;;3.72;;
19623;SDS011;9959;49.798;9.928;2023-03-30T17:46:19;14.43;;;6.68;;
19623;SDS011;9959;49.798;9.928;2023-03-30T17:48:46;13.68;;;5.65;;